LZB978 LBWN-LBSF

Flight info

Callsign LZB978
Flight time 0h 37m
Altitude 34000
Route DICXA T343 UMPIT
Aircraft A319/M-SDE3FGHIRWY/LB1

Departure

Time 2026-05-04 13:55
Airport Varna Airport (LBWN)

Arrival

Time 2026-05-04 14:32
Airport Sofia Airport (LBSF)
Time Latitude Longitude Altitude Speed Heading
2026-05-04 13:29 43.23609 27.82666 222 ft 0 kts 64°
2026-05-04 13:49 43.23610 27.82666 222 ft 0 kts 64°
2026-05-04 13:49 43.23609 27.82672 222 ft 1 kts 94°
2026-05-04 13:49 43.23597 27.82678 224 ft 3 kts 166°
2026-05-04 13:50 43.23572 27.82681 222 ft 4 kts 167°
2026-05-04 13:50 43.23557 27.82715 222 ft 5 kts 99°
2026-05-04 13:50 43.23553 27.82762 222 ft 5 kts 96°
2026-05-04 13:50 43.23549 27.82817 222 ft 6 kts 93°
2026-05-04 13:51 43.23549 27.82879 222 ft 7 kts 89°
2026-05-04 13:51 43.23555 27.82947 222 ft 8 kts 81°
2026-05-04 13:51 43.23550 27.83020 222 ft 8 kts 103°
2026-05-04 13:51 43.23547 27.83100 222 ft 9 kts 91°
2026-05-04 13:52 43.23538 27.83276 222 ft 8 kts 97°
2026-05-04 13:52 43.23506 27.83335 222 ft 8 kts 157°
2026-05-04 13:52 43.23446 27.83335 222 ft 9 kts 194°
2026-05-04 13:53 43.23388 27.83347 222 ft 9 kts 125°
2026-05-04 13:53 43.23362 27.83426 223 ft 9 kts 105°
2026-05-04 13:53 43.23355 27.83521 222 ft 12 kts 95°
2026-05-04 13:54 43.23331 27.83841 222 ft 19 kts 96°
2026-05-04 13:54 43.23307 27.84015 222 ft 19 kts 117°
2026-05-04 13:54 43.23093 27.84025 223 ft 18 kts 231°
2026-05-04 13:55 43.23079 27.83846 222 ft 25 kts 276°
2026-05-04 13:55 43.23228 27.82134 257 ft 151 kts 282°
2026-05-04 13:55 43.23341 27.80709 843 ft 151 kts 281°
2026-05-04 13:56 43.23433 27.79249 1469 ft 157 kts 276°
2026-05-04 13:56 43.23403 27.77639 1917 ft 178 kts 272°
2026-05-04 13:56 43.23253 27.73851 2737 ft 226 kts 272°
2026-05-04 13:57 43.23181 27.71562 3241 ft 253 kts 271°
2026-05-04 13:57 43.23080 27.69088 4062 ft 264 kts 270°
2026-05-04 13:58 43.22730 27.61327 7010 ft 282 kts 271°
2026-05-04 13:58 43.22496 27.55820 8865 ft 295 kts 272°
2026-05-04 13:58 43.22381 27.52979 9819 ft 302 kts 272°
2026-05-04 13:59 43.22264 27.50045 10408 ft 319 kts 272°
2026-05-04 13:59 43.22144 27.46897 10856 ft 339 kts 271°
2026-05-04 13:59 43.21872 27.40280 12255 ft 360 kts 271°
2026-05-04 14:00 43.21721 27.36779 12791 ft 373 kts 270°
2026-05-04 14:00 43.21402 27.29554 14232 ft 385 kts 270°
2026-05-04 14:00 43.21170 27.25871 14912 ft 391 kts 266°
2026-05-04 14:01 43.20768 27.22160 15601 ft 396 kts 264°
2026-05-04 14:01 43.20306 27.18423 16287 ft 400 kts 264°
2026-05-04 14:01 43.19291 27.10827 17625 ft 410 kts 263°
2026-05-04 14:02 43.18775 27.06970 18303 ft 413 kts 264°
2026-05-04 14:02 43.18271 27.03132 18907 ft 416 kts 263°
2026-05-04 14:02 43.17766 26.99212 19515 ft 419 kts 263°
2026-05-04 14:02 43.17263 26.95264 20130 ft 423 kts 263°
2026-05-04 14:03 43.16756 26.91277 20755 ft 426 kts 263°
2026-05-04 14:03 43.16244 26.87270 21334 ft 429 kts 263°
2026-05-04 14:03 43.15724 26.83236 21902 ft 432 kts 262°
2026-05-04 14:03 43.15194 26.79171 22458 ft 435 kts 262°
2026-05-04 14:04 43.14122 26.70952 23538 ft 442 kts 262°
2026-05-04 14:04 43.13580 26.66792 23983 ft 445 kts 262°
2026-05-04 14:04 43.13032 26.62607 24425 ft 447 kts 261°
2026-05-04 14:05 43.11920 26.54179 25290 ft 452 kts 261°
2026-05-04 14:05 43.11358 26.49947 25731 ft 455 kts 261°
2026-05-04 14:05 43.10782 26.45638 26178 ft 457 kts 261°
2026-05-04 14:06 43.10211 26.41371 26614 ft 459 kts 261°
2026-05-04 14:06 43.09634 26.37067 27055 ft 461 kts 261°
2026-05-04 14:06 43.09065 26.32799 27476 ft 463 kts 261°
2026-05-04 14:06 43.08484 26.28453 27890 ft 465 kts 260°
2026-05-04 14:07 43.07899 26.24098 28293 ft 467 kts 260°
2026-05-04 14:07 43.07309 26.19724 28689 ft 469 kts 260°
2026-05-04 14:07 43.06711 26.15323 29074 ft 471 kts 260°
2026-05-04 14:07 43.06107 26.10909 29445 ft 473 kts 260°
2026-05-04 14:08 43.05495 26.06468 29807 ft 476 kts 260°
2026-05-04 14:08 43.04881 26.02010 30154 ft 478 kts 260°
2026-05-04 14:08 43.04267 25.97550 30474 ft 479 kts 259°
2026-05-04 14:08 43.03650 25.93075 30902 ft 477 kts 259°
2026-05-04 14:09 43.02422 25.84194 31778 ft 475 kts 259°
2026-05-04 14:09 43.01808 25.79763 32014 ft 474 kts 259°
2026-05-04 14:10 43.00587 25.70985 32060 ft 467 kts 259°
2026-05-04 14:10 42.99360 25.62273 32061 ft 467 kts 259°
2026-05-04 14:11 42.98130 25.53572 32060 ft 467 kts 259°
2026-05-04 14:11 42.96275 25.40520 32072 ft 467 kts 258°
2026-05-04 14:12 42.95655 25.36170 31940 ft 468 kts 258°
2026-05-04 14:12 42.95029 25.31808 31265 ft 468 kts 259°
2026-05-04 14:12 42.93771 25.23106 29912 ft 472 kts 259°
2026-05-04 14:13 42.93123 25.18642 29141 ft 475 kts 259°
2026-05-04 14:13 42.92481 25.14219 28398 ft 476 kts 259°
2026-05-04 14:13 42.91845 25.09843 27694 ft 477 kts 259°
2026-05-04 14:13 42.91202 25.05420 26991 ft 473 kts 259°
2026-05-04 14:14 42.90562 25.01029 26310 ft 469 kts 259°
2026-05-04 14:14 42.89300 24.92407 24986 ft 459 kts 260°
2026-05-04 14:14 42.88675 24.88172 24354 ft 454 kts 260°
2026-05-04 14:15 42.87429 24.79828 22995 ft 444 kts 261°
2026-05-04 14:15 42.86204 24.71656 21574 ft 437 kts 261°
2026-05-04 14:16 42.85196 24.64948 20438 ft 432 kts 261°
2026-05-04 14:16 42.84597 24.60941 19772 ft 430 kts 261°
2026-05-04 14:17 42.83410 24.53002 18484 ft 426 kts 262°
2026-05-04 14:17 42.82817 24.49061 17770 ft 423 kts 261°
2026-05-04 14:17 42.81639 24.41323 16404 ft 411 kts 261°
2026-05-04 14:18 42.81056 24.37518 15778 ft 410 kts 261°
2026-05-04 14:18 42.79898 24.29956 14770 ft 402 kts 261°
2026-05-04 14:19 42.78766 24.22589 13743 ft 394 kts 261°
2026-05-04 14:19 42.78205 24.18947 13122 ft 392 kts 261°
2026-05-04 14:19 42.77633 24.15344 12533 ft 389 kts 259°
2026-05-04 14:19 42.77008 24.11782 11965 ft 385 kts 258°
2026-05-04 14:20 42.76353 24.08269 11368 ft 381 kts 258°
2026-05-04 14:20 42.75689 24.04780 10741 ft 379 kts 258°
2026-05-04 14:20 42.75093 24.01348 10170 ft 375 kts 262°
2026-05-04 14:21 42.74739 23.94525 9529 ft 348 kts 276°
2026-05-04 14:21 42.74926 23.91233 9164 ft 342 kts 279°
2026-05-04 14:21 42.75137 23.88062 8925 ft 339 kts 278°
2026-05-04 14:21 42.75344 23.84869 8726 ft 339 kts 278°
2026-05-04 14:22 42.75548 23.81671 8676 ft 340 kts 278°
2026-05-04 14:22 42.75738 23.78615 8648 ft 319 kts 278°
2026-05-04 14:22 42.75901 23.75888 8640 ft 299 kts 278°
2026-05-04 14:22 42.76070 23.73098 8643 ft 296 kts 278°
2026-05-04 14:23 42.76418 23.67529 8459 ft 296 kts 278°
2026-05-04 14:23 42.76591 23.64766 8067 ft 292 kts 278°
2026-05-04 14:23 42.76763 23.62027 7700 ft 290 kts 278°
2026-05-04 14:24 42.76934 23.59297 7318 ft 288 kts 278°
2026-05-04 14:24 42.77101 23.56606 6936 ft 285 kts 277°
2026-05-04 14:24 42.77264 23.53920 6609 ft 284 kts 278°
2026-05-04 14:24 42.77427 23.51258 6277 ft 282 kts 278°
2026-05-04 14:25 42.77587 23.48617 5971 ft 280 kts 277°
2026-05-04 14:25 42.77904 23.43366 5361 ft 276 kts 277°
2026-05-04 14:25 42.78061 23.40766 5135 ft 275 kts 277°
2026-05-04 14:26 42.78218 23.38175 4910 ft 274 kts 278°
2026-05-04 14:26 42.78372 23.35636 4683 ft 272 kts 277°
2026-05-04 14:26 42.78523 23.33076 4449 ft 270 kts 277°
2026-05-04 14:26 42.78667 23.30573 4257 ft 259 kts 277°
2026-05-04 14:27 42.78804 23.28191 4183 ft 245 kts 277°
2026-05-04 14:27 42.78933 23.25956 4185 ft 229 kts 277°
2026-05-04 14:27 42.78896 23.23840 4189 ft 221 kts 259°
2026-05-04 14:27 42.78244 23.22008 4188 ft 212 kts 231°
2026-05-04 14:28 42.77105 23.20804 4188 ft 209 kts 203°
2026-05-04 14:28 42.75713 23.20407 4196 ft 203 kts 174°
2026-05-04 14:28 42.74362 23.20856 4191 ft 200 kts 149°
2026-05-04 14:28 42.73136 23.21753 4194 ft 201 kts 147°
2026-05-04 14:29 42.71038 23.24101 4015 ft 193 kts 115°
2026-05-04 14:29 42.70491 23.27476 3602 ft 181 kts 90°
2026-05-04 14:30 42.70391 23.29144 3352 ft 173 kts 90°
2026-05-04 14:30 42.70295 23.30745 3120 ft 165 kts 92°
2026-05-04 14:30 42.70129 23.33531 2699 ft 137 kts 92°
2026-05-04 14:31 42.70056 23.34792 2526 ft 131 kts 91°
2026-05-04 14:31 42.69919 23.37213 2189 ft 130 kts 90°
2026-05-04 14:32 42.69775 23.39589 1830 ft 126 kts 92°
2026-05-04 14:32 42.69707 23.40742 1753 ft 111 kts 94°
2026-05-04 14:32 42.69665 23.41609 1752 ft 76 kts 95°
2026-05-04 14:32 42.69626 23.42185 1753 ft 40 kts 95°
2026-05-04 14:33 42.69596 23.42462 1752 ft 27 kts 104°
2026-05-04 14:33 42.69519 23.42684 1754 ft 20 kts 123°
2026-05-04 14:33 42.69440 23.42766 1752 ft 14 kts 185°
2026-05-04 14:33 42.69402 23.42662 1753 ft 14 kts 276°
2026-05-04 14:34 42.69411 23.42532 1753 ft 14 kts 275°
2026-05-04 14:34 42.69384 23.42445 1749 ft 11 kts 221°
2026-05-04 14:34 42.69313 23.42420 1744 ft 11 kts 190°
2026-05-04 14:34 42.69245 23.42373 1750 ft 11 kts 230°
2026-05-04 14:35 42.69216 23.42272 1748 ft 12 kts 255°
2026-05-04 14:35 42.69192 23.42163 1748 ft 12 kts 253°
2026-05-04 14:35 42.69166 23.42047 1753 ft 13 kts 253°
2026-05-04 14:35 42.69138 23.41926 1751 ft 14 kts 252°
2026-05-04 14:36 42.69110 23.41798 1751 ft 14 kts 253°
2026-05-04 14:36 42.69081 23.41667 1752 ft 13 kts 253°
2026-05-04 14:36 42.69059 23.41599 1746 ft 7 kts 226°
2026-05-04 14:36 42.69036 23.41552 1750 ft 3 kts 248°
2026-05-04 14:37 42.69030 23.41526 1746 ft 2 kts 252°
2026-05-04 14:37 42.69028 23.41520 1748 ft 0 kts 252°